Accueil
METAR-TAF:

METAR-TAF

Aéroports :

Aéroport de Vérone

Vérone, Italie

latitude: 45-23N, longitude: 010-52E, altitude: 67 m

Observation

Le bulletin a été fait il y a 23 minutes, à 21:50 UTC
Vent 4 kt de nord/nord-ouest
Température 23°C
Humidité 65%
Pression 1016 hPa
Visibilité 10 km ou plus
pas de nuages en-dessous de 1500 mètres et pas de cumulonimbus.

METAR: LIPX 212150Z 33004KT CAVOK 23/16 Q1016

Heure: 00:13 (22:13 UTC)

Prévision

Le bulletin a été fait il y a 2 heures et 13 minutes, à 20:00 UTC
Prévision valable du 21 à 21 UTC au 22 à 06 UTC
Vent 5 kt de direction variable
Visibilité 10 km ou plus
Nuages épars à une hauteur de 5000 ft

TAF: LIPX 212000Z 2121/2206 VRB05KT 9999 SCT050

Observations et prévisions météorologiques de plus de 4000 aéroports (messages METAR et TAF).

Les stations disponibles sont représentées par des disques jaunes et rouges sur la carte.

Passer la souris dessus pour voir le nom de la station.

Cliquer dessus pour voir les observations et prévisions météorologiques.

Pour changer de carte: cliquez sur les boutons verts avec une croix noire pour zoomer, sur le bouton vert avec un tiret pour effectuer un zoom arrière, ou sur les flèches vertes pour les cartes adjacentes.


METAR-TAF: